DLH260 LROP-LRTR
Flight info
| Callsign | DLH260 |
|---|---|
| Flight time | 0h 48m |
| Altitude | 30000 |
| Route | SOKRU1K SOKRU DCT ENIMA DCT NEKUL NEKUL2A |
| Aircraft | A320/M-VGDW/C |
Departure
| Time | 2026-04-25 11:02 |
|---|---|
| Airport | Bucharest Henri Coandă International Airport (LROP) |
Arrival
| Time | 2026-04-25 11:50 |
|---|---|
| Airport | Timișoara Traian Vuia International Airport (LRTR) |
| Time | Latitude | Longitude | Altitude | Speed | Heading |
|---|---|---|---|---|---|
| 2026-04-25 10:30 | 44.57021 | 26.08134 | 320 ft | 0 kts | 354° |
| 2026-04-25 10:52 | 44.57010 | 26.08135 | 321 ft | 4 kts | 354° |
| 2026-04-25 10:53 | 44.56983 | 26.08139 | 321 ft | 4 kts | 356° |
| 2026-04-25 10:53 | 44.56956 | 26.08139 | 321 ft | 4 kts | 11° |
| 2026-04-25 10:53 | 44.56937 | 26.08127 | 321 ft | 3 kts | 74° |
| 2026-04-25 10:53 | 44.56936 | 26.08121 | 322 ft | 0 kts | 84° |
| 2026-04-25 10:56 | 44.56939 | 26.08169 | 322 ft | 13 kts | 84° |
| 2026-04-25 10:56 | 44.56950 | 26.08321 | 321 ft | 17 kts | 83° |
| 2026-04-25 10:56 | 44.57038 | 26.08385 | 322 ft | 17 kts | 354° |
| 2026-04-25 10:57 | 44.57164 | 26.08367 | 322 ft | 19 kts | 354° |
| 2026-04-25 10:57 | 44.57228 | 26.08419 | 322 ft | 8 kts | 90° |
| 2026-04-25 10:57 | 44.57261 | 26.08496 | 322 ft | 13 kts | 11° |
| 2026-04-25 10:57 | 44.57350 | 26.08489 | 323 ft | 13 kts | 354° |
| 2026-04-25 10:58 | 44.57441 | 26.08476 | 323 ft | 13 kts | 354° |
| 2026-04-25 10:58 | 44.57540 | 26.08460 | 323 ft | 16 kts | 354° |
| 2026-04-25 10:58 | 44.57549 | 26.08459 | 323 ft | 0 kts | 354° |
| 2026-04-25 10:59 | 44.57595 | 26.08453 | 323 ft | 16 kts | 355° |
| 2026-04-25 11:00 | 44.57665 | 26.08497 | 323 ft | 4 kts | 90° |
| 2026-04-25 11:00 | 44.57667 | 26.08511 | 324 ft | 1 kts | 81° |
| 2026-04-25 11:00 | 44.57667 | 26.08513 | 324 ft | 0 kts | 81° |
| 2026-04-25 11:01 | 44.57682 | 26.08679 | 323 ft | 52 kts | 84° |
| 2026-04-25 11:01 | 44.57744 | 26.09506 | 322 ft | 115 kts | 84° |
| 2026-04-25 11:01 | 44.57848 | 26.10865 | 325 ft | 163 kts | 84° |
| 2026-04-25 11:01 | 44.57971 | 26.12576 | 588 ft | 184 kts | 84° |
| 2026-04-25 11:02 | 44.58113 | 26.14466 | 986 ft | 207 kts | 84° |
| 2026-04-25 11:02 | 44.58269 | 26.16525 | 1731 ft | 217 kts | 85° |
| 2026-04-25 11:02 | 44.58432 | 26.18655 | 2545 ft | 222 kts | 84° |
| 2026-04-25 11:02 | 44.58884 | 26.20729 | 3368 ft | 228 kts | 53° |
| 2026-04-25 11:03 | 44.60172 | 26.21998 | 4189 ft | 233 kts | 12° |
| 2026-04-25 11:03 | 44.61754 | 26.21827 | 5020 ft | 233 kts | 332° |
| 2026-04-25 11:03 | 44.63015 | 26.20424 | 5849 ft | 233 kts | 309° |
| 2026-04-25 11:03 | 44.64158 | 26.18802 | 6650 ft | 238 kts | 327° |
| 2026-04-25 11:04 | 44.65717 | 26.17967 | 7421 ft | 243 kts | 346° |
| 2026-04-25 11:04 | 44.67398 | 26.17624 | 8248 ft | 246 kts | 352° |
| 2026-04-25 11:04 | 44.69091 | 26.17451 | 9050 ft | 249 kts | 353° |
| 2026-04-25 11:04 | 44.70264 | 26.17354 | 9578 ft | 251 kts | 353° |
| 2026-04-25 11:05 | 44.72616 | 26.17139 | 10628 ft | 254 kts | 352° |
| 2026-04-25 11:05 | 44.74359 | 26.16741 | 11366 ft | 254 kts | 340° |
| 2026-04-25 11:05 | 44.75986 | 26.15799 | 12082 ft | 253 kts | 326° |
| 2026-04-25 11:05 | 44.77386 | 26.14380 | 12825 ft | 251 kts | 314° |
| 2026-04-25 11:06 | 44.78548 | 26.12544 | 13550 ft | 251 kts | 302° |
| 2026-04-25 11:06 | 44.79482 | 26.10455 | 14221 ft | 253 kts | 300° |
| 2026-04-25 11:06 | 44.80410 | 26.08328 | 14868 ft | 255 kts | 300° |
| 2026-04-25 11:06 | 44.81348 | 26.06190 | 15513 ft | 258 kts | 300° |
| 2026-04-25 11:07 | 44.82298 | 26.04031 | 16162 ft | 260 kts | 301° |
| 2026-04-25 11:07 | 44.83253 | 26.01857 | 16797 ft | 262 kts | 301° |
| 2026-04-25 11:07 | 44.84219 | 25.99658 | 17440 ft | 265 kts | 301° |
| 2026-04-25 11:07 | 44.85193 | 25.97441 | 18086 ft | 267 kts | 301° |
| 2026-04-25 11:08 | 44.86140 | 25.95182 | 18663 ft | 270 kts | 297° |
| 2026-04-25 11:08 | 44.86871 | 25.92735 | 19201 ft | 272 kts | 289° |
| 2026-04-25 11:08 | 44.87412 | 25.90164 | 19746 ft | 275 kts | 287° |
| 2026-04-25 11:08 | 44.87954 | 25.87572 | 20296 ft | 277 kts | 288° |
| 2026-04-25 11:09 | 44.88503 | 25.84959 | 20820 ft | 279 kts | 288° |
| 2026-04-25 11:09 | 44.89053 | 25.82358 | 21357 ft | 282 kts | 288° |
| 2026-04-25 11:09 | 44.89612 | 25.79695 | 21889 ft | 285 kts | 288° |
| 2026-04-25 11:09 | 44.90183 | 25.76973 | 22421 ft | 287 kts | 288° |
| 2026-04-25 11:10 | 44.90745 | 25.74292 | 22941 ft | 290 kts | 288° |
| 2026-04-25 11:10 | 44.91133 | 25.72440 | 23283 ft | 292 kts | 288° |
| 2026-04-25 11:10 | 44.91899 | 25.68780 | 23904 ft | 295 kts | 288° |
| 2026-04-25 11:10 | 44.92482 | 25.65986 | 24326 ft | 298 kts | 288° |
| 2026-04-25 11:11 | 44.93067 | 25.63173 | 24753 ft | 300 kts | 289° |
| 2026-04-25 11:11 | 44.93660 | 25.60332 | 25180 ft | 302 kts | 289° |
| 2026-04-25 11:11 | 44.94254 | 25.57479 | 25602 ft | 304 kts | 289° |
| 2026-04-25 11:11 | 44.94850 | 25.54607 | 26026 ft | 305 kts | 289° |
| 2026-04-25 11:12 | 44.95447 | 25.51715 | 26430 ft | 308 kts | 289° |
| 2026-04-25 11:12 | 44.96049 | 25.48800 | 26834 ft | 310 kts | 289° |
| 2026-04-25 11:12 | 44.96652 | 25.45871 | 27233 ft | 312 kts | 289° |
| 2026-04-25 11:12 | 44.97261 | 25.42905 | 27620 ft | 315 kts | 289° |
| 2026-04-25 11:13 | 44.97872 | 25.39923 | 27956 ft | 320 kts | 289° |
| 2026-04-25 11:13 | 44.98504 | 25.36848 | 28021 ft | 332 kts | 289° |
| 2026-04-25 11:13 | 44.99163 | 25.33649 | 28021 ft | 346 kts | 289° |
| 2026-04-25 11:13 | 44.99849 | 25.30316 | 28011 ft | 360 kts | 289° |
| 2026-04-25 11:14 | 45.00559 | 25.26859 | 28007 ft | 373 kts | 289° |
| 2026-04-25 11:14 | 45.01289 | 25.23285 | 28009 ft | 384 kts | 289° |
| 2026-04-25 11:14 | 45.02039 | 25.19602 | 28011 ft | 396 kts | 289° |
| 2026-04-25 11:15 | 45.03580 | 25.11994 | 28011 ft | 405 kts | 289° |
| 2026-04-25 11:15 | 45.05115 | 25.04377 | 28015 ft | 405 kts | 289° |
| 2026-04-25 11:16 | 45.07419 | 24.92881 | 28010 ft | 405 kts | 288° |
| 2026-04-25 11:16 | 45.08948 | 24.85220 | 28010 ft | 404 kts | 288° |
| 2026-04-25 11:17 | 45.10477 | 24.77558 | 28009 ft | 404 kts | 288° |
| 2026-04-25 11:17 | 45.12007 | 24.69892 | 28019 ft | 404 kts | 288° |
| 2026-04-25 11:18 | 45.13527 | 24.62231 | 28012 ft | 404 kts | 288° |
| 2026-04-25 11:18 | 45.15041 | 24.54556 | 28004 ft | 404 kts | 288° |
| 2026-04-25 11:19 | 45.16547 | 24.46887 | 28015 ft | 404 kts | 288° |
| 2026-04-25 11:19 | 45.18053 | 24.39209 | 28015 ft | 404 kts | 288° |
| 2026-04-25 11:20 | 45.19550 | 24.31527 | 28016 ft | 405 kts | 288° |
| 2026-04-25 11:20 | 45.20797 | 24.25089 | 28012 ft | 404 kts | 288° |
| 2026-04-25 11:21 | 45.22281 | 24.17399 | 28006 ft | 403 kts | 288° |
| 2026-04-25 11:21 | 45.23761 | 24.09721 | 28004 ft | 403 kts | 288° |
| 2026-04-25 11:22 | 45.25238 | 24.02073 | 27656 ft | 407 kts | 288° |
| 2026-04-25 11:22 | 45.26007 | 23.98081 | 26031 ft | 423 kts | 288° |
| 2026-04-25 11:22 | 45.26814 | 23.93958 | 24252 ft | 444 kts | 288° |
| 2026-04-25 11:23 | 45.27669 | 23.89770 | 23256 ft | 446 kts | 288° |
| 2026-04-25 11:23 | 45.28557 | 23.85512 | 22353 ft | 442 kts | 288° |
| 2026-04-25 11:23 | 45.29417 | 23.81409 | 21505 ft | 438 kts | 288° |
| 2026-04-25 11:23 | 45.30293 | 23.77224 | 20707 ft | 434 kts | 288° |
| 2026-04-25 11:24 | 45.31135 | 23.73158 | 20182 ft | 424 kts | 287° |
| 2026-04-25 11:24 | 45.31942 | 23.69210 | 19994 ft | 407 kts | 287° |
| 2026-04-25 11:24 | 45.32706 | 23.65439 | 19998 ft | 387 kts | 287° |
| 2026-04-25 11:24 | 45.33420 | 23.61894 | 20005 ft | 369 kts | 287° |
| 2026-04-25 11:25 | 45.34125 | 23.58408 | 19319 ft | 370 kts | 287° |
| 2026-04-25 11:25 | 45.34861 | 23.54791 | 18199 ft | 383 kts | 287° |
| 2026-04-25 11:25 | 45.35614 | 23.51087 | 16943 ft | 396 kts | 287° |
| 2026-04-25 11:25 | 45.36383 | 23.47286 | 15896 ft | 403 kts | 287° |
| 2026-04-25 11:26 | 45.37146 | 23.43496 | 15143 ft | 403 kts | 287° |
| 2026-04-25 11:26 | 45.37911 | 23.39681 | 14502 ft | 399 kts | 287° |
| 2026-04-25 11:26 | 45.38665 | 23.35902 | 13860 ft | 395 kts | 287° |
| 2026-04-25 11:26 | 45.39410 | 23.32159 | 13124 ft | 392 kts | 287° |
| 2026-04-25 11:27 | 45.40152 | 23.28452 | 12423 ft | 388 kts | 287° |
| 2026-04-25 11:27 | 45.40881 | 23.24807 | 12083 ft | 376 kts | 287° |
| 2026-04-25 11:27 | 45.41579 | 23.21309 | 11988 ft | 358 kts | 288° |
| 2026-04-25 11:27 | 45.42029 | 23.19048 | 12000 ft | 343 kts | 287° |
| 2026-04-25 11:28 | 45.42855 | 23.14877 | 12009 ft | 318 kts | 287° |
| 2026-04-25 11:28 | 45.43440 | 23.11912 | 12007 ft | 304 kts | 288° |
| 2026-04-25 11:28 | 45.44008 | 23.09054 | 12005 ft | 298 kts | 288° |
| 2026-04-25 11:28 | 45.44572 | 23.06223 | 11999 ft | 296 kts | 287° |
| 2026-04-25 11:29 | 45.45134 | 23.03398 | 12002 ft | 297 kts | 287° |
| 2026-04-25 11:29 | 45.45695 | 23.00556 | 12002 ft | 298 kts | 287° |
| 2026-04-25 11:29 | 45.46253 | 22.97720 | 12007 ft | 298 kts | 287° |
| 2026-04-25 11:29 | 45.46813 | 22.94878 | 12009 ft | 298 kts | 287° |
| 2026-04-25 11:30 | 45.47373 | 22.92026 | 11868 ft | 302 kts | 287° |
| 2026-04-25 11:30 | 45.47949 | 22.89079 | 10994 ft | 316 kts | 287° |
| 2026-04-25 11:30 | 45.48552 | 22.85993 | 10015 ft | 331 kts | 287° |
| 2026-04-25 11:30 | 45.49181 | 22.82769 | 8841 ft | 345 kts | 287° |
| 2026-04-25 11:31 | 45.49831 | 22.79442 | 7527 ft | 350 kts | 286° |
| 2026-04-25 11:31 | 45.50481 | 22.76112 | 6289 ft | 346 kts | 286° |
| 2026-04-25 11:31 | 45.51112 | 22.72869 | 5487 ft | 329 kts | 284° |
| 2026-04-25 11:31 | 45.51697 | 22.69861 | 5209 ft | 301 kts | 284° |
| 2026-04-25 11:32 | 45.52228 | 22.67125 | 5079 ft | 271 kts | 284° |
| 2026-04-25 11:32 | 45.52708 | 22.64644 | 5010 ft | 253 kts | 284° |
| 2026-04-25 11:32 | 45.53175 | 22.62234 | 5014 ft | 256 kts | 285° |
| 2026-04-25 11:32 | 45.53649 | 22.59779 | 5021 ft | 254 kts | 284° |
| 2026-04-25 11:33 | 45.54116 | 22.57346 | 5014 ft | 254 kts | 284° |
| 2026-04-25 11:33 | 45.54583 | 22.54907 | 5013 ft | 257 kts | 284° |
| 2026-04-25 11:33 | 45.55052 | 22.52450 | 5015 ft | 256 kts | 284° |
| 2026-04-25 11:33 | 45.55519 | 22.50012 | 5013 ft | 253 kts | 284° |
| 2026-04-25 11:34 | 45.55977 | 22.47624 | 5015 ft | 253 kts | 284° |
| 2026-04-25 11:34 | 45.56436 | 22.45217 | 5007 ft | 252 kts | 285° |
| 2026-04-25 11:34 | 45.56898 | 22.42799 | 5015 ft | 254 kts | 285° |
| 2026-04-25 11:34 | 45.57359 | 22.40402 | 5013 ft | 248 kts | 284° |
| 2026-04-25 11:35 | 45.57816 | 22.38013 | 5011 ft | 249 kts | 284° |
| 2026-04-25 11:35 | 45.58273 | 22.35623 | 5010 ft | 250 kts | 283° |
| 2026-04-25 11:35 | 45.58726 | 22.33240 | 5017 ft | 249 kts | 283° |
| 2026-04-25 11:35 | 45.59176 | 22.30863 | 4995 ft | 249 kts | 283° |
| 2026-04-25 11:36 | 45.59625 | 22.28492 | 4599 ft | 249 kts | 283° |
| 2026-04-25 11:36 | 45.60077 | 22.26106 | 4297 ft | 247 kts | 284° |
| 2026-04-25 11:36 | 45.60528 | 22.23722 | 4012 ft | 248 kts | 283° |
| 2026-04-25 11:36 | 45.60981 | 22.21332 | 4012 ft | 248 kts | 282° |
| 2026-04-25 11:37 | 45.61427 | 22.18968 | 4013 ft | 246 kts | 283° |
| 2026-04-25 11:37 | 45.61873 | 22.16605 | 4010 ft | 250 kts | 283° |
| 2026-04-25 11:37 | 45.62328 | 22.14186 | 4008 ft | 253 kts | 283° |
| 2026-04-25 11:37 | 45.62784 | 22.11770 | 4016 ft | 250 kts | 283° |
| 2026-04-25 11:38 | 45.63232 | 22.09391 | 4002 ft | 247 kts | 283° |
| 2026-04-25 11:38 | 45.63682 | 22.06993 | 4002 ft | 252 kts | 283° |
| 2026-04-25 11:38 | 45.64135 | 22.04568 | 4019 ft | 253 kts | 283° |
| 2026-04-25 11:38 | 45.64580 | 22.02181 | 4012 ft | 249 kts | 283° |
| 2026-04-25 11:39 | 45.65030 | 21.99768 | 4011 ft | 253 kts | 283° |
| 2026-04-25 11:39 | 45.65485 | 21.97323 | 4011 ft | 255 kts | 284° |
| 2026-04-25 11:39 | 45.65940 | 21.94874 | 4008 ft | 253 kts | 283° |
| 2026-04-25 11:39 | 45.66392 | 21.92452 | 4012 ft | 252 kts | 284° |
| 2026-04-25 11:40 | 45.66843 | 21.90024 | 4004 ft | 253 kts | 283° |
| 2026-04-25 11:40 | 45.67306 | 21.87597 | 4007 ft | 252 kts | 287° |
| 2026-04-25 11:40 | 45.67914 | 21.85244 | 4008 ft | 253 kts | 289° |
| 2026-04-25 11:40 | 45.68520 | 21.82888 | 4003 ft | 253 kts | 288° |
| 2026-04-25 11:41 | 45.69116 | 21.80486 | 3659 ft | 260 kts | 288° |
| 2026-04-25 11:41 | 45.69716 | 21.78128 | 3561 ft | 247 kts | 288° |
| 2026-04-25 11:41 | 45.70296 | 21.75869 | 3576 ft | 234 kts | 288° |
| 2026-04-25 11:41 | 45.70830 | 21.73792 | 3573 ft | 211 kts | 288° |
| 2026-04-25 11:42 | 45.71308 | 21.71926 | 3584 ft | 186 kts | 288° |
| 2026-04-25 11:42 | 45.71725 | 21.70295 | 3584 ft | 166 kts | 287° |
| 2026-04-25 11:42 | 45.72107 | 21.68801 | 3575 ft | 155 kts | 287° |
| 2026-04-25 11:42 | 45.72474 | 21.67361 | 3594 ft | 149 kts | 287° |
| 2026-04-25 11:43 | 45.72815 | 21.66024 | 3582 ft | 138 kts | 288° |
| 2026-04-25 11:43 | 45.73135 | 21.64768 | 3580 ft | 132 kts | 288° |
| 2026-04-25 11:43 | 45.73450 | 21.63532 | 3581 ft | 134 kts | 288° |
| 2026-04-25 11:43 | 45.73772 | 21.62268 | 3577 ft | 136 kts | 288° |
| 2026-04-25 11:44 | 45.74094 | 21.61004 | 3577 ft | 134 kts | 288° |
| 2026-04-25 11:44 | 45.74414 | 21.59746 | 3578 ft | 135 kts | 287° |
| 2026-04-25 11:44 | 45.74735 | 21.58483 | 3574 ft | 135 kts | 289° |
| 2026-04-25 11:44 | 45.75060 | 21.57207 | 3449 ft | 137 kts | 289° |
| 2026-04-25 11:45 | 45.75383 | 21.55937 | 3281 ft | 135 kts | 287° |
| 2026-04-25 11:45 | 45.75699 | 21.54691 | 3084 ft | 133 kts | 286° |
| 2026-04-25 11:45 | 45.76013 | 21.53457 | 2916 ft | 131 kts | 287° |
| 2026-04-25 11:45 | 45.76324 | 21.52232 | 2734 ft | 131 kts | 287° |
| 2026-04-25 11:46 | 45.76637 | 21.50995 | 2576 ft | 133 kts | 288° |
| 2026-04-25 11:46 | 45.76953 | 21.49750 | 2386 ft | 132 kts | 288° |
| 2026-04-25 11:46 | 45.77261 | 21.48534 | 2218 ft | 129 kts | 288° |
| 2026-04-25 11:46 | 45.77564 | 21.47335 | 2049 ft | 127 kts | 288° |
| 2026-04-25 11:47 | 45.77867 | 21.46141 | 1878 ft | 129 kts | 287° |
| 2026-04-25 11:47 | 45.78178 | 21.44908 | 1707 ft | 133 kts | 287° |
| 2026-04-25 11:47 | 45.78488 | 21.43683 | 1530 ft | 130 kts | 288° |
| 2026-04-25 11:47 | 45.78793 | 21.42479 | 1353 ft | 128 kts | 288° |
| 2026-04-25 11:48 | 45.79095 | 21.41281 | 1168 ft | 128 kts | 289° |
| 2026-04-25 11:48 | 45.79401 | 21.40070 | 1012 ft | 130 kts | 287° |
| 2026-04-25 11:48 | 45.79708 | 21.38850 | 828 ft | 132 kts | 288° |
| 2026-04-25 11:48 | 45.80023 | 21.37602 | 652 ft | 133 kts | 288° |
| 2026-04-25 11:49 | 45.80335 | 21.36365 | 476 ft | 131 kts | 289° |
| 2026-04-25 11:49 | 45.80637 | 21.35161 | 354 ft | 110 kts | 290° |
| 2026-04-25 11:49 | 45.80842 | 21.34320 | 351 ft | 77 kts | 288° |
| 2026-04-25 11:49 | 45.81013 | 21.33662 | 360 ft | 80 kts | 290° |
| 2026-04-25 11:50 | 45.80558 | 21.35482 | 357 ft | 0 kts | 289° |